sensor_id;sensor_type;location;lat;lon;timestamp;P1;durP1;ratioP1;P2;durP2;ratioP2
3795;SDS011;1913;50.660;7.834;2022-09-11T00:00:34;160.07;;;53.87;;
3795;SDS011;1913;50.660;7.834;2022-09-11T00:02:59;155.00;;;54.90;;
3795;SDS011;1913;50.660;7.834;2022-09-11T00:05:25;243.10;;;59.00;;
3795;SDS011;1913;50.660;7.834;2022-09-11T00:07:50;173.30;;;54.50;;
3795;SDS011;1913;50.660;7.834;2022-09-11T00:10:16;181.67;;;57.33;;
3795;SDS011;1913;50.660;7.834;2022-09-11T00:12:42;156.77;;;55.03;;
3795;SDS011;1913;50.660;7.834;2022-09-11T00:15:08;185.70;;;56.13;;
3795;SDS011;1913;50.660;7.834;2022-09-11T00:17:34;177.70;;;55.43;;
3795;SDS011;1913;50.660;7.834;2022-09-11T00:20:00;155.33;;;55.63;;
3795;SDS011;1913;50.660;7.834;2022-09-11T00:22:26;229.10;;;59.27;;
3795;SDS011;1913;50.660;7.834;2022-09-11T00:24:52;132.37;;;53.40;;
3795;SDS011;1913;50.660;7.834;2022-09-11T00:27:19;153.90;;;54.80;;
3795;SDS011;1913;50.660;7.834;2022-09-11T00:29:44;214.50;;;61.40;;
3795;SDS011;1913;50.660;7.834;2022-09-11T00:32:09;141.03;;;53.87;;
3795;SDS011;1913;50.660;7.834;2022-09-11T00:34:35;135.07;;;53.10;;
3795;SDS011;1913;50.660;7.834;2022-09-11T00:37:01;139.57;;;54.67;;
3795;SDS011;1913;50.660;7.834;2022-09-11T00:39:27;121.70;;;52.83;;
3795;SDS011;1913;50.660;7.834;2022-09-11T00:41:52;141.00;;;56.13;;
3795;SDS011;1913;50.660;7.834;2022-09-11T00:46:48;154.50;;;55.40;;
3795;SDS011;1913;50.660;7.834;2022-09-11T00:49:30;195.83;;;62.53;;
3795;SDS011;1913;50.660;7.834;2022-09-11T00:54:33;137.97;;;57.07;;
3795;SDS011;1913;50.660;7.834;2022-09-11T00:57:05;118.73;;;51.40;;
3795;SDS011;1913;50.660;7.834;2022-09-11T00:59:32;133.93;;;52.90;;
3795;SDS011;1913;50.660;7.834;2022-09-11T01:01:59;124.10;;;52.80;;
3795;SDS011;1913;50.660;7.834;2022-09-11T01:04:25;118.90;;;51.67;;
3795;SDS011;1913;50.660;7.834;2022-09-11T01:06:53;154.77;;;54.67;;
3795;SDS011;1913;50.660;7.834;2022-09-11T01:09:24;157.93;;;60.40;;
3795;SDS011;1913;50.660;7.834;2022-09-11T01:15:02;123.07;;;53.10;;
3795;SDS011;1913;50.660;7.834;2022-09-11T01:20:58;210.70;;;62.80;;
3795;SDS011;1913;50.660;7.834;2022-09-11T01:30:07;241.83;;;65.90;;
3795;SDS011;1913;50.660;7.834;2022-09-11T01:40:55;171.03;;;59.10;;
3795;SDS011;1913;50.660;7.834;2022-09-11T01:43:23;222.70;;;66.90;;
3795;SDS011;1913;50.660;7.834;2022-09-11T01:45:55;200.57;;;64.13;;
3795;SDS011;1913;50.660;7.834;2022-09-11T01:48:23;230.93;;;64.87;;
3795;SDS011;1913;50.660;7.834;2022-09-11T01:50:55;185.80;;;63.07;;
3795;SDS011;1913;50.660;7.834;2022-09-11T01:53:26;146.97;;;58.40;;
3795;SDS011;1913;50.660;7.834;2022-09-11T01:55:59;215.33;;;66.30;;
3795;SDS011;1913;50.660;7.834;2022-09-11T01:58:28;172.77;;;61.80;;
3795;SDS011;1913;50.660;7.834;2022-09-11T02:00:58;178.80;;;60.77;;
3795;SDS011;1913;50.660;7.834;2022-09-11T02:03:30;218.80;;;68.07;;
3795;SDS011;1913;50.660;7.834;2022-09-11T02:06:06;257.33;;;66.57;;
3795;SDS011;1913;50.660;7.834;2022-09-11T02:08:40;282.93;;;70.03;;
3795;SDS011;1913;50.660;7.834;2022-09-11T02:11:07;204.13;;;65.40;;
3795;SDS011;1913;50.660;7.834;2022-09-11T02:13:39;212.43;;;65.17;;
3795;SDS011;1913;50.660;7.834;2022-09-11T02:19:13;396.93;;;76.73;;
3795;SDS011;1913;50.660;7.834;2022-09-11T02:21:42;232.60;;;68.07;;
3795;SDS011;1913;50.660;7.834;2022-09-11T02:24:09;223.10;;;67.47;;
3795;SDS011;1913;50.660;7.834;2022-09-11T02:26:39;295.77;;;73.53;;
3795;SDS011;1913;50.660;7.834;2022-09-11T02:29:10;208.60;;;67.53;;
3795;SDS011;1913;50.660;7.834;2022-09-11T02:31:36;251.00;;;70.77;;
3795;SDS011;1913;50.660;7.834;2022-09-11T02:34:03;265.67;;;72.97;;
3795;SDS011;1913;50.660;7.834;2022-09-11T02:44:50;227.57;;;68.03;;
3795;SDS011;1913;50.660;7.834;2022-09-11T02:50:54;249.60;;;68.17;;
3795;SDS011;1913;50.660;7.834;2022-09-11T02:56:10;243.97;;;69.97;;
3795;SDS011;1913;50.660;7.834;2022-09-11T03:01:19;247.60;;;72.40;;
3795;SDS011;1913;50.660;7.834;2022-09-11T03:03:45;228.50;;;67.27;;
3795;SDS011;1913;50.660;7.834;2022-09-11T03:06:13;279.63;;;70.50;;
3795;SDS011;1913;50.660;7.834;2022-09-11T03:08:41;302.37;;;73.10;;
3795;SDS011;1913;50.660;7.834;2022-09-11T03:11:07;275.23;;;71.00;;
3795;SDS011;1913;50.660;7.834;2022-09-11T03:13:35;318.97;;;75.80;;
3795;SDS011;1913;50.660;7.834;2022-09-11T03:16:02;262.50;;;71.37;;
3795;SDS011;1913;50.660;7.834;2022-09-11T03:18:29;181.70;;;63.47;;
3795;SDS011;1913;50.660;7.834;2022-09-11T03:20:54;285.90;;;72.27;;
3795;SDS011;1913;50.660;7.834;2022-09-11T03:23:20;316.77;;;76.00;;
3795;SDS011;1913;50.660;7.834;2022-09-11T03:25:45;279.13;;;71.40;;
3795;SDS011;1913;50.660;7.834;2022-09-11T03:28:11;295.80;;;71.87;;
3795;SDS011;1913;50.660;7.834;2022-09-11T03:30:36;311.70;;;71.43;;
3795;SDS011;1913;50.660;7.834;2022-09-11T03:33:03;278.20;;;69.93;;
3795;SDS011;1913;50.660;7.834;2022-09-11T03:35:29;364.97;;;76.10;;
3795;SDS011;1913;50.660;7.834;2022-09-11T03:37:54;407.33;;;80.37;;
3795;SDS011;1913;50.660;7.834;2022-09-11T03:40:19;322.70;;;71.57;;
3795;SDS011;1913;50.660;7.834;2022-09-11T03:42:46;212.73;;;66.77;;
3795;SDS011;1913;50.660;7.834;2022-09-11T03:45:11;394.23;;;75.50;;
3795;SDS011;1913;50.660;7.834;2022-09-11T03:47:38;230.53;;;66.70;;
3795;SDS011;1913;50.660;7.834;2022-09-11T03:50:04;293.80;;;72.67;;
3795;SDS011;1913;50.660;7.834;2022-09-11T03:52:31;325.60;;;73.60;;
3795;SDS011;1913;50.660;7.834;2022-09-11T03:54:56;269.40;;;70.53;;
3795;SDS011;1913;50.660;7.834;2022-09-11T03:57:22;313.87;;;72.70;;
3795;SDS011;1913;50.660;7.834;2022-09-11T03:59:47;261.40;;;68.07;;
3795;SDS011;1913;50.660;7.834;2022-09-11T04:02:12;293.07;;;70.80;;
3795;SDS011;1913;50.660;7.834;2022-09-11T04:04:38;355.30;;;76.20;;
3795;SDS011;1913;50.660;7.834;2022-09-11T04:07:03;231.70;;;68.70;;
3795;SDS011;1913;50.660;7.834;2022-09-11T04:09:28;333.70;;;74.70;;
3795;SDS011;1913;50.660;7.834;2022-09-11T04:11:55;339.07;;;72.03;;
3795;SDS011;1913;50.660;7.834;2022-09-11T04:14:21;294.13;;;70.60;;
3795;SDS011;1913;50.660;7.834;2022-09-11T04:16:47;213.17;;;63.90;;
3795;SDS011;1913;50.660;7.834;2022-09-11T04:19:12;289.63;;;69.40;;
3795;SDS011;1913;50.660;7.834;2022-09-11T04:21:38;353.60;;;75.20;;
3795;SDS011;1913;50.660;7.834;2022-09-11T04:24:04;309.30;;;73.30;;
3795;SDS011;1913;50.660;7.834;2022-09-11T04:26:30;253.77;;;66.33;;
3795;SDS011;1913;50.660;7.834;2022-09-11T04:28:57;221.10;;;69.07;;
3795;SDS011;1913;50.660;7.834;2022-09-11T04:31:23;283.00;;;71.47;;
3795;SDS011;1913;50.660;7.834;2022-09-11T04:33:50;288.10;;;69.57;;
3795;SDS011;1913;50.660;7.834;2022-09-11T04:36:16;220.10;;;68.30;;
3795;SDS011;1913;50.660;7.834;2022-09-11T04:38:43;291.40;;;73.80;;
3795;SDS011;1913;50.660;7.834;2022-09-11T04:41:09;336.97;;;76.10;;
3795;SDS011;1913;50.660;7.834;2022-09-11T04:43:37;258.30;;;72.77;;
3795;SDS011;1913;50.660;7.834;2022-09-11T04:46:08;317.37;;;75.47;;
3795;SDS011;1913;50.660;7.834;2022-09-11T04:48:42;284.97;;;72.23;;
3795;SDS011;1913;50.660;7.834;2022-09-11T04:51:14;324.77;;;74.80;;
3795;SDS011;1913;50.660;7.834;2022-09-11T04:53:45;424.00;;;81.00;;
3795;SDS011;1913;50.660;7.834;2022-09-11T04:56:11;233.37;;;69.47;;
3795;SDS011;1913;50.660;7.834;2022-09-11T04:58:38;294.13;;;71.07;;
3795;SDS011;1913;50.660;7.834;2022-09-11T05:01:05;215.03;;;65.50;;
3795;SDS011;1913;50.660;7.834;2022-09-11T05:03:34;299.07;;;74.00;;
3795;SDS011;1913;50.660;7.834;2022-09-11T05:06:07;247.77;;;68.13;;
3795;SDS011;1913;50.660;7.834;2022-09-11T05:08:34;286.73;;;72.60;;
3795;SDS011;1913;50.660;7.834;2022-09-11T05:11:00;319.57;;;73.27;;
3795;SDS011;1913;50.660;7.834;2022-09-11T05:13:26;228.40;;;68.37;;
3795;SDS011;1913;50.660;7.834;2022-09-11T05:15:52;261.93;;;71.27;;
3795;SDS011;1913;50.660;7.834;2022-09-11T05:18:18;274.70;;;72.17;;
3795;SDS011;1913;50.660;7.834;2022-09-11T05:20:45;281.10;;;72.30;;
3795;SDS011;1913;50.660;7.834;2022-09-11T05:23:10;235.67;;;66.80;;
3795;SDS011;1913;50.660;7.834;2022-09-11T05:25:36;256.07;;;69.93;;
3795;SDS011;1913;50.660;7.834;2022-09-11T05:28:03;184.27;;;64.73;;
3795;SDS011;1913;50.660;7.834;2022-09-11T05:30:29;198.67;;;66.27;;
3795;SDS011;1913;50.660;7.834;2022-09-11T05:32:55;187.00;;;65.40;;
3795;SDS011;1913;50.660;7.834;2022-09-11T05:35:24;202.20;;;63.50;;
3795;SDS011;1913;50.660;7.834;2022-09-11T05:37:49;171.17;;;62.07;;
3795;SDS011;1913;50.660;7.834;2022-09-11T05:40:16;230.23;;;66.40;;
3795;SDS011;1913;50.660;7.834;2022-09-11T05:42:44;223.17;;;65.93;;
3795;SDS011;1913;50.660;7.834;2022-09-11T05:45:09;165.23;;;59.77;;
3795;SDS011;1913;50.660;7.834;2022-09-11T05:47:34;181.93;;;65.13;;
3795;SDS011;1913;50.660;7.834;2022-09-11T05:50:00;180.47;;;64.13;;
3795;SDS011;1913;50.660;7.834;2022-09-11T05:52:26;166.13;;;59.50;;
3795;SDS011;1913;50.660;7.834;2022-09-11T05:54:52;162.87;;;58.50;;
3795;SDS011;1913;50.660;7.834;2022-09-11T05:57:18;190.00;;;62.43;;
3795;SDS011;1913;50.660;7.834;2022-09-11T05:59:44;192.43;;;62.57;;
3795;SDS011;1913;50.660;7.834;2022-09-11T06:02:11;186.03;;;62.60;;
3795;SDS011;1913;50.660;7.834;2022-09-11T06:04:36;179.03;;;58.53;;
3795;SDS011;1913;50.660;7.834;2022-09-11T06:07:02;166.00;;;58.00;;
3795;SDS011;1913;50.660;7.834;2022-09-11T06:09:27;172.87;;;61.77;;
3795;SDS011;1913;50.660;7.834;2022-09-11T06:11:53;149.00;;;56.40;;
3795;SDS011;1913;50.660;7.834;2022-09-11T06:14:18;156.07;;;54.83;;
3795;SDS011;1913;50.660;7.834;2022-09-11T06:16:46;173.47;;;58.13;;
3795;SDS011;1913;50.660;7.834;2022-09-11T06:19:12;172.23;;;56.30;;
3795;SDS011;1913;50.660;7.834;2022-09-11T06:21:37;165.60;;;57.60;;
3795;SDS011;1913;50.660;7.834;2022-09-11T06:24:03;176.03;;;56.80;;
3795;SDS011;1913;50.660;7.834;2022-09-11T06:26:29;142.90;;;53.70;;
3795;SDS011;1913;50.660;7.834;2022-09-11T06:28:55;186.67;;;58.80;;
3795;SDS011;1913;50.660;7.834;2022-09-11T06:31:22;156.70;;;56.03;;
3795;SDS011;1913;50.660;7.834;2022-09-11T06:33:49;156.63;;;57.10;;
3795;SDS011;1913;50.660;7.834;2022-09-11T06:36:16;159.13;;;57.33;;
3795;SDS011;1913;50.660;7.834;2022-09-11T06:38:43;150.23;;;54.93;;
3795;SDS011;1913;50.660;7.834;2022-09-11T06:41:10;180.20;;;56.40;;
3795;SDS011;1913;50.660;7.834;2022-09-11T06:43:39;148.90;;;53.93;;
3795;SDS011;1913;50.660;7.834;2022-09-11T06:46:07;174.63;;;56.40;;
3795;SDS011;1913;50.660;7.834;2022-09-11T06:48:36;149.53;;;54.27;;
3795;SDS011;1913;50.660;7.834;2022-09-11T06:51:04;135.50;;;50.73;;
3795;SDS011;1913;50.660;7.834;2022-09-11T06:53:32;155.50;;;52.20;;
3795;SDS011;1913;50.660;7.834;2022-09-11T06:56:01;139.00;;;51.97;;
3795;SDS011;1913;50.660;7.834;2022-09-11T06:58:28;142.20;;;51.30;;
3795;SDS011;1913;50.660;7.834;2022-09-11T07:00:55;149.23;;;50.57;;
3795;SDS011;1913;50.660;7.834;2022-09-11T07:03:25;146.57;;;51.50;;
3795;SDS011;1913;50.660;7.834;2022-09-11T07:05:51;129.27;;;49.17;;
3795;SDS011;1913;50.660;7.834;2022-09-11T07:08:21;126.70;;;48.63;;
3795;SDS011;1913;50.660;7.834;2022-09-11T07:10:46;114.53;;;45.63;;
3795;SDS011;1913;50.660;7.834;2022-09-11T07:13:12;125.67;;;47.60;;
3795;SDS011;1913;50.660;7.834;2022-09-11T07:15:37;103.93;;;43.53;;
3795;SDS011;1913;50.660;7.834;2022-09-11T07:18:03;103.47;;;41.47;;
3795;SDS011;1913;50.660;7.834;2022-09-11T07:20:30;107.10;;;41.60;;
3795;SDS011;1913;50.660;7.834;2022-09-11T07:22:57;95.00;;;40.43;;
3795;SDS011;1913;50.660;7.834;2022-09-11T07:25:25;95.07;;;40.80;;
3795;SDS011;1913;50.660;7.834;2022-09-11T07:27:52;95.57;;;39.43;;
3795;SDS011;1913;50.660;7.834;2022-09-11T07:30:19;89.27;;;40.97;;
3795;SDS011;1913;50.660;7.834;2022-09-11T07:32:45;83.77;;;36.97;;
3795;SDS011;1913;50.660;7.834;2022-09-11T07:35:10;87.67;;;38.67;;
3795;SDS011;1913;50.660;7.834;2022-09-11T07:37:37;76.80;;;36.23;;
3795;SDS011;1913;50.660;7.834;2022-09-11T07:40:02;89.87;;;38.40;;
3795;SDS011;1913;50.660;7.834;2022-09-11T07:42:29;87.23;;;36.90;;
3795;SDS011;1913;50.660;7.834;2022-09-11T07:44:56;80.67;;;36.50;;
3795;SDS011;1913;50.660;7.834;2022-09-11T07:47:25;100.93;;;41.80;;
3795;SDS011;1913;50.660;7.834;2022-09-11T07:49:51;83.83;;;38.50;;
3795;SDS011;1913;50.660;7.834;2022-09-11T07:52:16;102.60;;;40.70;;
3795;SDS011;1913;50.660;7.834;2022-09-11T07:54:44;87.30;;;37.67;;
3795;SDS011;1913;50.660;7.834;2022-09-11T07:57:11;86.20;;;38.10;;
3795;SDS011;1913;50.660;7.834;2022-09-11T07:59:36;80.97;;;37.30;;
3795;SDS011;1913;50.660;7.834;2022-09-11T08:02:02;86.10;;;36.60;;
3795;SDS011;1913;50.660;7.834;2022-09-11T08:04:27;82.47;;;36.93;;
3795;SDS011;1913;50.660;7.834;2022-09-11T08:06:56;86.00;;;38.33;;
3795;SDS011;1913;50.660;7.834;2022-09-11T08:09:24;90.60;;;37.70;;
3795;SDS011;1913;50.660;7.834;2022-09-11T08:11:51;87.83;;;36.63;;
3795;SDS011;1913;50.660;7.834;2022-09-11T08:14:21;90.40;;;38.97;;
3795;SDS011;1913;50.660;7.834;2022-09-11T08:16:49;95.90;;;37.87;;
3795;SDS011;1913;50.660;7.834;2022-09-11T08:19:16;93.40;;;39.33;;
3795;SDS011;1913;50.660;7.834;2022-09-11T08:21:43;88.90;;;37.57;;
3795;SDS011;1913;50.660;7.834;2022-09-11T08:24:11;108.53;;;40.73;;
3795;SDS011;1913;50.660;7.834;2022-09-11T08:26:36;91.70;;;38.17;;
3795;SDS011;1913;50.660;7.834;2022-09-11T08:29:02;89.40;;;35.80;;
3795;SDS011;1913;50.660;7.834;2022-09-11T08:31:28;87.60;;;36.83;;
3795;SDS011;1913;50.660;7.834;2022-09-11T08:33:54;79.00;;;35.00;;
3795;SDS011;1913;50.660;7.834;2022-09-11T08:36:20;80.13;;;35.80;;
3795;SDS011;1913;50.660;7.834;2022-09-11T08:38:46;77.60;;;31.50;;
3795;SDS011;1913;50.660;7.834;2022-09-11T08:46:29;67.23;;;30.93;;
3795;SDS011;1913;50.660;7.834;2022-09-11T08:51:47;57.30;;;27.13;;
3795;SDS011;1913;50.660;7.834;2022-09-11T08:57:17;62.47;;;25.60;;
3795;SDS011;1913;50.660;7.834;2022-09-11T09:05:26;53.93;;;24.40;;
3795;SDS011;1913;50.660;7.834;2022-09-11T09:08:03;52.33;;;25.90;;
3795;SDS011;1913;50.660;7.834;2022-09-11T09:10:51;50.50;;;27.70;;
3795;SDS011;1913;50.660;7.834;2022-09-11T09:18:59;49.33;;;24.17;;
3795;SDS011;1913;50.660;7.834;2022-09-11T09:21:36;56.00;;;25.07;;
3795;SDS011;1913;50.660;7.834;2022-09-11T09:24:08;49.97;;;25.40;;
3795;SDS011;1913;50.660;7.834;2022-09-11T09:26:46;48.63;;;24.87;;
3795;SDS011;1913;50.660;7.834;2022-09-11T09:29:28;54.20;;;25.47;;
3795;SDS011;1913;50.660;7.834;2022-09-11T09:32:05;59.73;;;25.57;;
3795;SDS011;1913;50.660;7.834;2022-09-11T09:34:40;52.00;;;24.83;;
3795;SDS011;1913;50.660;7.834;2022-09-11T09:37:20;51.03;;;23.87;;
3795;SDS011;1913;50.660;7.834;2022-09-11T09:39:47;45.43;;;23.83;;
3795;SDS011;1913;50.660;7.834;2022-09-11T09:42:20;44.83;;;22.53;;
3795;SDS011;1913;50.660;7.834;2022-09-11T09:47:14;44.30;;;22.37;;
3795;SDS011;1913;50.660;7.834;2022-09-11T09:49:40;40.60;;;20.50;;
3795;SDS011;1913;50.660;7.834;2022-09-11T09:57:31;35.27;;;20.17;;
3795;SDS011;1913;50.660;7.834;2022-09-11T10:00:10;45.70;;;23.47;;
3795;SDS011;1913;50.660;7.834;2022-09-11T10:05:18;50.60;;;24.60;;
3795;SDS011;1913;50.660;7.834;2022-09-11T10:07:53;60.83;;;26.57;;
3795;SDS011;1913;50.660;7.834;2022-09-11T10:12:53;49.70;;;24.03;;
3795;SDS011;1913;50.660;7.834;2022-09-11T10:15:22;54.30;;;26.20;;
3795;SDS011;1913;50.660;7.834;2022-09-11T10:17:48;56.37;;;24.90;;
3795;SDS011;1913;50.660;7.834;2022-09-11T10:22:40;41.63;;;22.90;;
3795;SDS011;1913;50.660;7.834;2022-09-11T10:30:26;37.00;;;19.67;;
3795;SDS011;1913;50.660;7.834;2022-09-11T10:32:57;39.80;;;19.10;;
3795;SDS011;1913;50.660;7.834;2022-09-11T10:35:25;38.67;;;21.43;;
3795;SDS011;1913;50.660;7.834;2022-09-11T10:38:02;40.57;;;19.10;;
3795;SDS011;1913;50.660;7.834;2022-09-11T10:40:39;41.87;;;20.20;;
3795;SDS011;1913;50.660;7.834;2022-09-11T10:46:41;32.40;;;19.03;;
3795;SDS011;1913;50.660;7.834;2022-09-11T10:51:31;38.93;;;20.00;;
3795;SDS011;1913;50.660;7.834;2022-09-11T10:54:00;38.40;;;19.50;;
3795;SDS011;1913;50.660;7.834;2022-09-11T10:57:00;37.63;;;20.10;;
3795;SDS011;1913;50.660;7.834;2022-09-11T10:59:41;36.27;;;20.93;;
3795;SDS011;1913;50.660;7.834;2022-09-11T11:04:59;38.13;;;20.20;;
3795;SDS011;1913;50.660;7.834;2022-09-11T11:27:39;34.50;;;18.50;;
3795;SDS011;1913;50.660;7.834;2022-09-11T11:36:38;34.07;;;16.60;;
3795;SDS011;1913;50.660;7.834;2022-09-11T11:42:22;25.67;;;15.00;;
3795;SDS011;1913;50.660;7.834;2022-09-11T11:44:53;26.20;;;15.63;;
3795;SDS011;1913;50.660;7.834;2022-09-11T11:47:34;30.90;;;16.70;;
3795;SDS011;1913;50.660;7.834;2022-09-11T11:53:24;31.10;;;17.23;;
3795;SDS011;1913;50.660;7.834;2022-09-11T11:56:19;30.10;;;18.13;;
3795;SDS011;1913;50.660;7.834;2022-09-11T12:04:38;27.80;;;15.77;;
3795;SDS011;1913;50.660;7.834;2022-09-11T12:07:13;22.37;;;13.80;;
3795;SDS011;1913;50.660;7.834;2022-09-11T12:10:00;25.40;;;14.77;;
3795;SDS011;1913;50.660;7.834;2022-09-11T12:12:42;25.83;;;14.43;;
3795;SDS011;1913;50.660;7.834;2022-09-11T12:15:21;23.97;;;14.03;;
3795;SDS011;1913;50.660;7.834;2022-09-11T12:20:43;25.90;;;14.87;;
3795;SDS011;1913;50.660;7.834;2022-09-11T12:26:04;25.83;;;15.90;;
3795;SDS011;1913;50.660;7.834;2022-09-11T12:28:30;23.00;;;15.60;;
3795;SDS011;1913;50.660;7.834;2022-09-11T12:36:30;24.60;;;15.43;;
3795;SDS011;1913;50.660;7.834;2022-09-11T12:39:05;24.13;;;15.27;;
3795;SDS011;1913;50.660;7.834;2022-09-11T12:41:43;25.93;;;15.40;;
3795;SDS011;1913;50.660;7.834;2022-09-11T12:47:17;25.97;;;14.83;;
3795;SDS011;1913;50.660;7.834;2022-09-11T12:49:50;27.83;;;16.07;;
3795;SDS011;1913;50.660;7.834;2022-09-11T12:52:22;26.70;;;15.30;;
3795;SDS011;1913;50.660;7.834;2022-09-11T12:54:53;26.93;;;16.47;;
3795;SDS011;1913;50.660;7.834;2022-09-11T12:57:22;32.53;;;18.20;;
3795;SDS011;1913;50.660;7.834;2022-09-11T12:59:56;28.00;;;17.70;;
3795;SDS011;1913;50.660;7.834;2022-09-11T13:02:49;30.93;;;17.80;;
3795;SDS011;1913;50.660;7.834;2022-09-11T13:05:37;33.80;;;18.57;;
3795;SDS011;1913;50.660;7.834;2022-09-11T13:08:06;26.70;;;16.43;;
3795;SDS011;1913;50.660;7.834;2022-09-11T13:10:40;25.30;;;16.37;;
3795;SDS011;1913;50.660;7.834;2022-09-11T13:13:37;23.10;;;14.70;;
3795;SDS011;1913;50.660;7.834;2022-09-11T13:16:23;26.83;;;16.27;;
3795;SDS011;1913;50.660;7.834;2022-09-11T13:18:59;29.20;;;17.30;;
3795;SDS011;1913;50.660;7.834;2022-09-11T13:21:27;35.00;;;18.47;;
3795;SDS011;1913;50.660;7.834;2022-09-11T13:24:00;28.40;;;16.13;;
3795;SDS011;1913;50.660;7.834;2022-09-11T13:26:30;30.23;;;16.00;;
3795;SDS011;1913;50.660;7.834;2022-09-11T13:28:58;25.10;;;15.20;;
3795;SDS011;1913;50.660;7.834;2022-09-11T13:31:32;27.23;;;16.20;;
3795;SDS011;1913;50.660;7.834;2022-09-11T13:34:00;22.73;;;15.20;;
3795;SDS011;1913;50.660;7.834;2022-09-11T13:36:28;24.07;;;14.23;;
3795;SDS011;1913;50.660;7.834;2022-09-11T13:38:59;27.63;;;14.47;;
3795;SDS011;1913;50.660;7.834;2022-09-11T13:41:27;24.50;;;14.17;;
3795;SDS011;1913;50.660;7.834;2022-09-11T13:43:57;24.37;;;15.37;;
3795;SDS011;1913;50.660;7.834;2022-09-11T13:46:25;22.00;;;13.30;;
3795;SDS011;1913;50.660;7.834;2022-09-11T13:51:31;23.03;;;14.57;;
3795;SDS011;1913;50.660;7.834;2022-09-11T13:54:00;25.30;;;14.17;;
3795;SDS011;1913;50.660;7.834;2022-09-11T13:56:39;21.30;;;14.43;;
3795;SDS011;1913;50.660;7.834;2022-09-11T14:02:21;21.90;;;13.47;;
3795;SDS011;1913;50.660;7.834;2022-09-11T14:04:49;19.77;;;12.70;;
3795;SDS011;1913;50.660;7.834;2022-09-11T14:07:21;19.53;;;12.60;;
3795;SDS011;1913;50.660;7.834;2022-09-11T14:10:05;18.73;;;11.40;;
3795;SDS011;1913;50.660;7.834;2022-09-11T14:12:56;19.80;;;11.97;;
3795;SDS011;1913;50.660;7.834;2022-09-11T14:15:42;18.80;;;11.30;;
3795;SDS011;1913;50.660;7.834;2022-09-11T14:18:17;19.73;;;12.40;;
3795;SDS011;1913;50.660;7.834;2022-09-11T14:20:59;18.00;;;12.30;;
3795;SDS011;1913;50.660;7.834;2022-09-11T14:23:28;21.37;;;12.30;;
3795;SDS011;1913;50.660;7.834;2022-09-11T14:26:55;19.57;;;11.97;;
3795;SDS011;1913;50.660;7.834;2022-09-11T14:29:20;17.63;;;11.27;;
3795;SDS011;1913;50.660;7.834;2022-09-11T14:31:48;16.07;;;11.43;;
3795;SDS011;1913;50.660;7.834;2022-09-11T14:34:28;17.30;;;11.43;;
3795;SDS011;1913;50.660;7.834;2022-09-11T14:36:55;20.17;;;11.23;;
3795;SDS011;1913;50.660;7.834;2022-09-11T14:39:55;17.60;;;10.87;;
3795;SDS011;1913;50.660;7.834;2022-09-11T14:42:24;21.13;;;11.40;;
3795;SDS011;1913;50.660;7.834;2022-09-11T14:44:52;16.10;;;10.77;;
3795;SDS011;1913;50.660;7.834;2022-09-11T14:47:19;14.97;;;9.57;;
3795;SDS011;1913;50.660;7.834;2022-09-11T14:49:47;16.23;;;10.70;;
3795;SDS011;1913;50.660;7.834;2022-09-11T14:52:18;16.17;;;10.60;;
3795;SDS011;1913;50.660;7.834;2022-09-11T14:54:46;15.30;;;10.20;;
3795;SDS011;1913;50.660;7.834;2022-09-11T14:57:19;16.33;;;10.83;;
3795;SDS011;1913;50.660;7.834;2022-09-11T14:59:52;15.07;;;9.60;;
3795;SDS011;1913;50.660;7.834;2022-09-11T15:02:19;16.63;;;10.57;;
3795;SDS011;1913;50.660;7.834;2022-09-11T15:04:47;17.90;;;10.53;;
3795;SDS011;1913;50.660;7.834;2022-09-11T15:07:14;16.93;;;10.07;;
3795;SDS011;1913;50.660;7.834;2022-09-11T15:09:40;15.23;;;9.60;;
3795;SDS011;1913;50.660;7.834;2022-09-11T15:12:07;17.43;;;10.13;;
3795;SDS011;1913;50.660;7.834;2022-09-11T15:14:34;16.60;;;10.23;;
3795;SDS011;1913;50.660;7.834;2022-09-11T15:17:00;14.07;;;9.43;;
3795;SDS011;1913;50.660;7.834;2022-09-11T15:19:28;14.70;;;9.30;;
3795;SDS011;1913;50.660;7.834;2022-09-11T15:21:55;14.00;;;9.37;;
3795;SDS011;1913;50.660;7.834;2022-09-11T15:24:22;14.03;;;9.83;;
3795;SDS011;1913;50.660;7.834;2022-09-11T15:26:51;13.00;;;8.93;;
3795;SDS011;1913;50.660;7.834;2022-09-11T15:29:18;17.17;;;9.20;;
3795;SDS011;1913;50.660;7.834;2022-09-11T15:31:46;14.53;;;9.40;;
3795;SDS011;1913;50.660;7.834;2022-09-11T15:34:13;16.37;;;10.07;;
3795;SDS011;1913;50.660;7.834;2022-09-11T15:36:40;15.50;;;10.17;;
3795;SDS011;1913;50.660;7.834;2022-09-11T15:39:06;16.93;;;9.80;;
3795;SDS011;1913;50.660;7.834;2022-09-11T15:41:36;13.10;;;8.80;;
3795;SDS011;1913;50.660;7.834;2022-09-11T15:44:07;15.33;;;9.97;;
3795;SDS011;1913;50.660;7.834;2022-09-11T15:46:35;15.10;;;9.13;;
3795;SDS011;1913;50.660;7.834;2022-09-11T15:49:01;15.00;;;9.97;;
3795;SDS011;1913;50.660;7.834;2022-09-11T15:51:27;14.27;;;9.80;;
3795;SDS011;1913;50.660;7.834;2022-09-11T15:53:57;14.00;;;9.60;;
3795;SDS011;1913;50.660;7.834;2022-09-11T15:56:23;15.63;;;9.73;;
3795;SDS011;1913;50.660;7.834;2022-09-11T15:58:49;15.80;;;9.87;;
3795;SDS011;1913;50.660;7.834;2022-09-11T16:01:17;13.00;;;9.43;;
3795;SDS011;1913;50.660;7.834;2022-09-11T16:03:54;13.87;;;8.50;;
3795;SDS011;1913;50.660;7.834;2022-09-11T16:06:24;17.60;;;9.87;;
3795;SDS011;1913;50.660;7.834;2022-09-11T16:08:55;13.23;;;8.93;;
3795;SDS011;1913;50.660;7.834;2022-09-11T16:11:22;13.00;;;8.83;;
3795;SDS011;1913;50.660;7.834;2022-09-11T16:13:51;16.13;;;9.90;;
3795;SDS011;1913;50.660;7.834;2022-09-11T16:16:17;15.43;;;9.10;;
3795;SDS011;1913;50.660;7.834;2022-09-11T16:18:44;14.67;;;9.07;;
3795;SDS011;1913;50.660;7.834;2022-09-11T16:21:10;13.97;;;8.97;;
3795;SDS011;1913;50.660;7.834;2022-09-11T16:23:39;12.53;;;9.00;;
3795;SDS011;1913;50.660;7.834;2022-09-11T16:26:06;17.00;;;9.23;;
3795;SDS011;1913;50.660;7.834;2022-09-11T16:28:33;12.27;;;8.10;;
3795;SDS011;1913;50.660;7.834;2022-09-11T16:31:01;15.10;;;8.70;;
3795;SDS011;1913;50.660;7.834;2022-09-11T16:33:28;13.00;;;9.20;;
3795;SDS011;1913;50.660;7.834;2022-09-11T16:36:05;14.30;;;9.13;;
3795;SDS011;1913;50.660;7.834;2022-09-11T16:38:33;13.00;;;8.90;;
3795;SDS011;1913;50.660;7.834;2022-09-11T16:41:01;13.83;;;8.70;;
3795;SDS011;1913;50.660;7.834;2022-09-11T16:43:27;12.60;;;8.60;;
3795;SDS011;1913;50.660;7.834;2022-09-11T16:45:55;13.40;;;8.50;;
3795;SDS011;1913;50.660;7.834;2022-09-11T16:48:21;16.67;;;9.67;;
3795;SDS011;1913;50.660;7.834;2022-09-11T16:50:52;16.33;;;9.63;;
3795;SDS011;1913;50.660;7.834;2022-09-11T16:53:21;14.90;;;10.03;;
3795;SDS011;1913;50.660;7.834;2022-09-11T16:55:56;13.83;;;8.67;;
3795;SDS011;1913;50.660;7.834;2022-09-11T16:58:25;13.10;;;9.20;;
3795;SDS011;1913;50.660;7.834;2022-09-11T17:00:50;11.80;;;8.60;;
3795;SDS011;1913;50.660;7.834;2022-09-11T17:03:17;12.87;;;9.43;;
3795;SDS011;1913;50.660;7.834;2022-09-11T17:05:50;11.90;;;9.00;;
3795;SDS011;1913;50.660;7.834;2022-09-11T17:08:17;14.23;;;9.87;;
3795;SDS011;1913;50.660;7.834;2022-09-11T17:10:44;12.70;;;9.10;;
3795;SDS011;1913;50.660;7.834;2022-09-11T17:13:12;14.90;;;9.80;;
3795;SDS011;1913;50.660;7.834;2022-09-11T17:15:38;13.40;;;9.30;;
3795;SDS011;1913;50.660;7.834;2022-09-11T17:18:05;15.37;;;9.97;;
3795;SDS011;1913;50.660;7.834;2022-09-11T17:20:32;17.17;;;10.33;;
3795;SDS011;1913;50.660;7.834;2022-09-11T17:22:58;20.53;;;12.00;;
3795;SDS011;1913;50.660;7.834;2022-09-11T17:25:23;13.90;;;10.33;;
3795;SDS011;1913;50.660;7.834;2022-09-11T17:27:49;16.97;;;11.30;;
3795;SDS011;1913;50.660;7.834;2022-09-11T17:30:15;16.97;;;12.07;;
3795;SDS011;1913;50.660;7.834;2022-09-11T17:32:43;22.37;;;13.27;;